Sns620 — FAA2748 — position and weather

sailwx.info

Track history (hours):
 
Tides and Currents Weather Stations Pressure Air Temp Water Temp Dewpoint Dewpoint Depression Visibility Wind Speed Wind Dir Waves Ship Positions

Sns620

Last reported at 2017-Sep-10 11:46 UTC. Time now 2017-Sep-22 08:30 UTC.
Position N 47°44' W 003°22'.
Warning: this ship's position is 11 days out of date.

Length 6 m.

Type: SAR. MMSI: 227105460.

Date/timePositionNaut miles runAvg speedWind from/ knotsBaromVisibWave heightAir tempDewpointWater temp
2017-Sep-10 11:46N 47°44' W 003°22'0 0.3
2017-Sep-10 11:28N 47°44' W 003°22'0 0.7
2017-Sep-10 11:00N 47°44' W 003°22'0 0.4
2017-Sep-10 10:30N 47°43' W 003°22'2 3.3
2017-Sep-10 10:00N 47°42' W 003°23'1 2.0
2017-Sep-10 09:30N 47°41' W 003°23'2 4.8
2017-Sep-10 09:00N 47°43' W 003°22'1 1.2
2017-Sep-10 08:28N 47°44' W 003°22'0 0.0
2017-Sep-09 15:17N 47°44' W 003°22'0 0.3
2017-Sep-09 14:59N 47°44' W 003°22'1 1.4
2017-Sep-09 14:30N 47°44' W 003°21'1 3.0
2017-Sep-09 14:00N 47°45' W 003°19'1 2.0
2017-Sep-09 13:31N 47°46' W 003°19'0 0.9
2017-Sep-09 13:00N 47°46' W 003°18'2 4.1
2017-Sep-09 12:30N 47°44' W 003°20'1 2.9
2017-Sep-09 12:00N 47°43' W 003°22'0 0.6
2017-Sep-09 11:28N 47°44' W 003°22'0 0.1
2017-Sep-09 10:58N 47°44' W 003°22'  
2017-Sep-06 16:21N 47°44' W 003°22'0 0.3
2017-Sep-06 16:00N 47°44' W 003°22'1 1.3
2017-Sep-06 15:28N 47°43' W 003°22'1 1.2
2017-Sep-06 15:00N 47°43' W 003°22'612.1
2017-Sep-06 14:30N 47°37' W 003°26'2 4.0
2017-Sep-06 14:01N 47°39' W 003°26'4 7.6
2017-Sep-06 13:31N 47°42' W 003°22'2 0.1
2017-Sep-05 11:55N 47°44' W 003°22'  
Track history (hours):
 
Tides and Currents Weather Stations Pressure Air Temp Water Temp Dewpoint Dewpoint Depression Visibility Wind Speed Wind Dir Waves Ship Positions

Sns620

Last reported at 2017-Sep-10 11:46 UTC. Time now 2017-Sep-22 08:30 UTC.
Position N 47°44' W 003°22'.
Warning: this ship's position is 11 days out of date.

Length 6 m.

Type: SAR. MMSI: 227105460.

Date/timePositionNaut miles runAvg speedWind from/ knotsBaromVisibWave heightAir tempDewpointWater temp
2017-Sep-10 11:46N 47°44' W 003°22'0 0.3
2017-Sep-10 11:28N 47°44' W 003°22'0 0.7
2017-Sep-10 11:00N 47°44' W 003°22'0 0.4
2017-Sep-10 10:30N 47°43' W 003°22'2 3.3
2017-Sep-10 10:00N 47°42' W 003°23'1 2.0
2017-Sep-10 09:30N 47°41' W 003°23'2 4.8
2017-Sep-10 09:00N 47°43' W 003°22'1 1.2
2017-Sep-10 08:28N 47°44' W 003°22'0 0.0
2017-Sep-09 15:17N 47°44' W 003°22'0 0.3
2017-Sep-09 14:59N 47°44' W 003°22'1 1.4
2017-Sep-09 14:30N 47°44' W 003°21'1 3.0
2017-Sep-09 14:00N 47°45' W 003°19'1 2.0
2017-Sep-09 13:31N 47°46' W 003°19'0 0.9
2017-Sep-09 13:00N 47°46' W 003°18'2 4.1
2017-Sep-09 12:30N 47°44' W 003°20'1 2.9
2017-Sep-09 12:00N 47°43' W 003°22'0 0.6
2017-Sep-09 11:28N 47°44' W 003°22'0 0.1
2017-Sep-09 10:58N 47°44' W 003°22'  
2017-Sep-06 16:21N 47°44' W 003°22'0 0.3
2017-Sep-06 16:00N 47°44' W 003°22'1 1.3
2017-Sep-06 15:28N 47°43' W 003°22'1 1.2
2017-Sep-06 15:00N 47°43' W 003°22'612.1
2017-Sep-06 14:30N 47°37' W 003°26'2 4.0
2017-Sep-06 14:01N 47°39' W 003°26'4 7.6
2017-Sep-06 13:31N 47°42' W 003°22'2 0.1
2017-Sep-05 11:55N 47°44' W 003°22'  

Dump ship's entire track history